Main page
METAR-TAF:

METAR-TAF

Airports :

King Abdulaziz International Airport

Jeddah, Saudi Arabia

latitude: 21-42N, longitude: 039-11E, elevation: 15 m

Current weather observation

The report was made 22 minutes ago, at 05:00 UTC
Wind 6 kt from the North/Northeast
Temperature 24°C
Humidity 57%
Pressure 1012 hPa
Visibility 10 km or more
Few clouds at a height of 4000 ft

METAR: OEJN 200500Z 03006KT 9999 FEW040 24/15 Q1012 NOSIG

Time: 08:22 (05:22 UTC)

Forecast

The report was made 6 hours and 22 minutes ago, at 23:00 UTC
Forecast valid from 20 at 00 UTC to 21 at 06 UTC
Wind 10 kt from the North/Northeast
Visibility 10 km or more
no clouds below 1500 m and no cumulonimbus
Becoming
from 20 at 07 UTC to 20 at 09 UTC
Wind 18 kt from the North

TAF: OEJN 192300Z 2000/2106 02010KT CAVOK BECMG 2007/2009 35018KT

Weather observations and forecasts of more than 4000 airports (METAR and TAF reports).

The available stations are represented by yellow and red dots on the map.

Hover mouse over dot to see the name of the station.

Then click to see weather observations and forecasts.

To change the map : click on the green buttons with a black cross to zoom in, on the green button with a dash to zoom out, or on the green arrows for adjacent maps.


METAR-TAF: